sensor_id;sensor_type;location;lat;lon;timestamp;P1;durP1;ratioP1;P2;durP2;ratioP2
5209;SDS011;2624;48.048;11.706;2022-07-12T00:04:24;1.30;;;1.30;;
5209;SDS011;2624;48.048;11.706;2022-07-12T00:09:25;3.53;;;1.30;;
5209;SDS011;2624;48.048;11.706;2022-07-12T00:14:29;1.40;;;1.40;;
5209;SDS011;2624;48.048;11.706;2022-07-12T00:19:31;1.50;;;1.37;;
5209;SDS011;2624;48.048;11.706;2022-07-12T00:24:33;1.43;;;1.20;;
5209;SDS011;2624;48.048;11.706;2022-07-12T00:29:36;1.53;;;1.43;;
5209;SDS011;2624;48.048;11.706;2022-07-12T00:34:37;1.60;;;1.50;;
5209;SDS011;2624;48.048;11.706;2022-07-12T00:39:39;1.10;;;1.10;;
5209;SDS011;2624;48.048;11.706;2022-07-12T00:44:42;1.33;;;1.33;;
5209;SDS011;2624;48.048;11.706;2022-07-12T00:49:44;3.70;;;1.20;;
5209;SDS011;2624;48.048;11.706;2022-07-12T00:54:46;1.20;;;1.20;;
5209;SDS011;2624;48.048;11.706;2022-07-12T00:59:49;0.90;;;0.90;;
5209;SDS011;2624;48.048;11.706;2022-07-12T01:04:51;1.50;;;1.40;;
5209;SDS011;2624;48.048;11.706;2022-07-12T01:09:56;1.10;;;1.10;;
5209;SDS011;2624;48.048;11.706;2022-07-12T01:14:59;1.40;;;1.40;;
5209;SDS011;2624;48.048;11.706;2022-07-12T01:20:03;1.10;;;1.10;;
5209;SDS011;2624;48.048;11.706;2022-07-12T01:25:08;1.33;;;1.33;;
5209;SDS011;2624;48.048;11.706;2022-07-12T01:30:10;1.47;;;1.30;;
5209;SDS011;2624;48.048;11.706;2022-07-12T01:35:12;1.77;;;1.50;;
5209;SDS011;2624;48.048;11.706;2022-07-12T01:40:16;1.07;;;1.07;;
5209;SDS011;2624;48.048;11.706;2022-07-12T01:45:17;1.07;;;1.07;;
5209;SDS011;2624;48.048;11.706;2022-07-12T01:50:19;1.90;;;1.30;;
5209;SDS011;2624;48.048;11.706;2022-07-12T01:55:22;1.23;;;1.23;;
5209;SDS011;2624;48.048;11.706;2022-07-12T02:00:24;1.30;;;1.30;;
5209;SDS011;2624;48.048;11.706;2022-07-12T02:05:27;1.27;;;1.27;;
5209;SDS011;2624;48.048;11.706;2022-07-12T02:10:30;1.30;;;1.30;;
5209;SDS011;2624;48.048;11.706;2022-07-12T02:15:32;2.87;;;1.10;;
5209;SDS011;2624;48.048;11.706;2022-07-12T02:20:34;1.00;;;1.00;;
5209;SDS011;2624;48.048;11.706;2022-07-12T02:25:37;1.20;;;1.20;;
5209;SDS011;2624;48.048;11.706;2022-07-12T02:30:39;1.03;;;1.03;;
5209;SDS011;2624;48.048;11.706;2022-07-12T02:35:40;1.63;;;1.40;;
5209;SDS011;2624;48.048;11.706;2022-07-12T02:40:44;7.00;;;1.23;;
5209;SDS011;2624;48.048;11.706;2022-07-12T02:45:55;1.33;;;1.00;;
5209;SDS011;2624;48.048;11.706;2022-07-12T02:51:04;1.77;;;0.97;;
5209;SDS011;2624;48.048;11.706;2022-07-12T02:56:08;1.30;;;1.20;;
5209;SDS011;2624;48.048;11.706;2022-07-12T03:01:11;1.93;;;1.70;;
5209;SDS011;2624;48.048;11.706;2022-07-12T03:06:14;1.30;;;1.30;;
5209;SDS011;2624;48.048;11.706;2022-07-12T03:11:17;2.97;;;1.50;;
5209;SDS011;2624;48.048;11.706;2022-07-12T03:16:19;1.23;;;1.23;;
5209;SDS011;2624;48.048;11.706;2022-07-12T03:21:21;2.50;;;1.33;;
5209;SDS011;2624;48.048;11.706;2022-07-12T03:26:24;1.20;;;1.20;;
5209;SDS011;2624;48.048;11.706;2022-07-12T03:31:26;2.67;;;1.03;;
5209;SDS011;2624;48.048;11.706;2022-07-12T03:36:28;1.60;;;1.50;;
5209;SDS011;2624;48.048;11.706;2022-07-12T03:41:31;4.20;;;1.10;;
5209;SDS011;2624;48.048;11.706;2022-07-12T03:46:32;2.50;;;1.40;;
5209;SDS011;2624;48.048;11.706;2022-07-12T03:51:34;2.10;;;1.37;;
5209;SDS011;2624;48.048;11.706;2022-07-12T03:56:37;1.53;;;1.53;;
5209;SDS011;2624;48.048;11.706;2022-07-12T04:01:56;0.93;;;0.93;;
5209;SDS011;2624;48.048;11.706;2022-07-12T04:06:58;1.03;;;1.03;;
5209;SDS011;2624;48.048;11.706;2022-07-12T04:12:02;1.60;;;1.60;;
5209;SDS011;2624;48.048;11.706;2022-07-12T04:17:04;3.27;;;1.30;;
5209;SDS011;2624;48.048;11.706;2022-07-12T04:22:06;1.30;;;1.30;;
5209;SDS011;2624;48.048;11.706;2022-07-12T04:27:09;5.90;;;1.77;;
5209;SDS011;2624;48.048;11.706;2022-07-12T04:32:11;1.93;;;1.70;;
5209;SDS011;2624;48.048;11.706;2022-07-12T04:37:12;3.03;;;2.10;;
5209;SDS011;2624;48.048;11.706;2022-07-12T04:42:16;1.97;;;1.87;;
5209;SDS011;2624;48.048;11.706;2022-07-12T04:47:17;2.77;;;2.57;;
5209;SDS011;2624;48.048;11.706;2022-07-12T04:52:19;2.70;;;2.50;;
5209;SDS011;2624;48.048;11.706;2022-07-12T04:57:22;2.47;;;2.27;;
5209;SDS011;2624;48.048;11.706;2022-07-12T05:02:24;3.77;;;2.37;;
5209;SDS011;2624;48.048;11.706;2022-07-12T05:07:26;12.93;;;2.27;;
5209;SDS011;2624;48.048;11.706;2022-07-12T05:12:29;2.67;;;2.47;;
5209;SDS011;2624;48.048;11.706;2022-07-12T05:17:31;2.90;;;2.63;;
5209;SDS011;2624;48.048;11.706;2022-07-12T05:22:33;6.23;;;3.10;;
5209;SDS011;2624;48.048;11.706;2022-07-12T05:27:36;3.07;;;2.87;;
5209;SDS011;2624;48.048;11.706;2022-07-12T05:32:38;6.83;;;2.63;;
5209;SDS011;2624;48.048;11.706;2022-07-12T05:37:40;3.90;;;3.17;;
5209;SDS011;2624;48.048;11.706;2022-07-12T05:42:43;3.33;;;3.00;;
5209;SDS011;2624;48.048;11.706;2022-07-12T05:47:45;2.53;;;2.43;;
5209;SDS011;2624;48.048;11.706;2022-07-12T05:52:47;3.13;;;2.83;;
5209;SDS011;2624;48.048;11.706;2022-07-12T05:58:08;2.47;;;2.27;;
5209;SDS011;2624;48.048;11.706;2022-07-12T06:03:10;2.67;;;2.57;;
5209;SDS011;2624;48.048;11.706;2022-07-12T06:08:13;2.97;;;2.67;;
5209;SDS011;2624;48.048;11.706;2022-07-12T06:13:16;3.80;;;2.10;;
5209;SDS011;2624;48.048;11.706;2022-07-12T06:18:18;2.60;;;2.40;;
5209;SDS011;2624;48.048;11.706;2022-07-12T06:23:20;1.80;;;1.70;;
5209;SDS011;2624;48.048;11.706;2022-07-12T06:28:23;2.07;;;1.93;;
5209;SDS011;2624;48.048;11.706;2022-07-12T06:33:24;1.63;;;1.63;;
5209;SDS011;2624;48.048;11.706;2022-07-12T06:38:26;1.80;;;1.70;;
5209;SDS011;2624;48.048;11.706;2022-07-12T06:43:29;4.50;;;1.90;;
5209;SDS011;2624;48.048;11.706;2022-07-12T06:48:31;2.17;;;1.60;;
5209;SDS011;2624;48.048;11.706;2022-07-12T06:53:33;1.83;;;1.70;;
5209;SDS011;2624;48.048;11.706;2022-07-12T06:58:36;2.00;;;1.90;;
5209;SDS011;2624;48.048;11.706;2022-07-12T07:03:38;10.50;;;2.00;;
5209;SDS011;2624;48.048;11.706;2022-07-12T07:08:40;2.23;;;2.13;;
5209;SDS011;2624;48.048;11.706;2022-07-12T07:13:44;4.40;;;1.93;;
5209;SDS011;2624;48.048;11.706;2022-07-12T07:18:45;2.70;;;1.80;;
5209;SDS011;2624;48.048;11.706;2022-07-12T07:23:47;5.00;;;2.23;;
5209;SDS011;2624;48.048;11.706;2022-07-12T07:28:50;2.27;;;1.93;;
5209;SDS011;2624;48.048;11.706;2022-07-12T07:34:10;1.73;;;1.63;;
5209;SDS011;2624;48.048;11.706;2022-07-12T07:39:12;2.60;;;2.40;;
5209;SDS011;2624;48.048;11.706;2022-07-12T07:44:15;3.33;;;1.90;;
5209;SDS011;2624;48.048;11.706;2022-07-12T07:49:17;1.30;;;1.30;;
5209;SDS011;2624;48.048;11.706;2022-07-12T07:54:18;2.40;;;1.87;;
5209;SDS011;2624;48.048;11.706;2022-07-12T07:59:22;5.93;;;2.17;;
5209;SDS011;2624;48.048;11.706;2022-07-12T08:04:23;4.83;;;1.50;;
5209;SDS011;2624;48.048;11.706;2022-07-12T08:09:25;2.97;;;1.70;;
5209;SDS011;2624;48.048;11.706;2022-07-12T08:14:28;1.90;;;1.80;;
5209;SDS011;2624;48.048;11.706;2022-07-12T08:19:30;1.23;;;1.13;;
5209;SDS011;2624;48.048;11.706;2022-07-12T08:24:32;1.13;;;0.90;;
5209;SDS011;2624;48.048;11.706;2022-07-12T08:29:35;1.07;;;1.07;;
5209;SDS011;2624;48.048;11.706;2022-07-12T08:34:37;1.27;;;1.20;;
5209;SDS011;2624;48.048;11.706;2022-07-12T08:39:39;1.90;;;1.77;;
5209;SDS011;2624;48.048;11.706;2022-07-12T08:44:43;1.57;;;1.10;;
5209;SDS011;2624;48.048;11.706;2022-07-12T08:49:55;5.80;;;1.50;;
5209;SDS011;2624;48.048;11.706;2022-07-12T08:55:18;0.90;;;0.80;;
5209;SDS011;2624;48.048;11.706;2022-07-12T09:00:23;0.93;;;0.93;;
5209;SDS011;2624;48.048;11.706;2022-07-12T09:05:27;3.70;;;1.13;;
5209;SDS011;2624;48.048;11.706;2022-07-12T09:10:29;1.13;;;1.13;;
5209;SDS011;2624;48.048;11.706;2022-07-12T09:15:33;7.80;;;1.60;;
5209;SDS011;2624;48.048;11.706;2022-07-12T09:20:35;0.83;;;0.83;;
5209;SDS011;2624;48.048;11.706;2022-07-12T09:25:38;4.40;;;1.13;;
5209;SDS011;2624;48.048;11.706;2022-07-12T09:30:49;1.23;;;1.23;;
5209;SDS011;2624;48.048;11.706;2022-07-12T09:35:57;1.33;;;1.23;;
5209;SDS011;2624;48.048;11.706;2022-07-12T09:41:10;2.50;;;1.60;;
5209;SDS011;2624;48.048;11.706;2022-07-12T09:46:20;1.07;;;1.07;;
5209;SDS011;2624;48.048;11.706;2022-07-12T09:51:22;5.13;;;1.10;;
5209;SDS011;2624;48.048;11.706;2022-07-12T09:56:24;0.60;;;0.60;;
5209;SDS011;2624;48.048;11.706;2022-07-12T10:01:30;0.90;;;0.90;;
5209;SDS011;2624;48.048;11.706;2022-07-12T10:06:32;1.10;;;1.10;;
5209;SDS011;2624;48.048;11.706;2022-07-12T10:11:34;1.40;;;1.40;;
5209;SDS011;2624;48.048;11.706;2022-07-12T10:16:41;1.03;;;1.03;;
5209;SDS011;2624;48.048;11.706;2022-07-12T10:21:46;0.50;;;0.50;;
5209;SDS011;2624;48.048;11.706;2022-07-12T10:26:49;0.77;;;0.77;;
5209;SDS011;2624;48.048;11.706;2022-07-12T10:31:52;0.80;;;0.80;;
5209;SDS011;2624;48.048;11.706;2022-07-12T10:42:15;1.00;;;1.00;;
5209;SDS011;2624;48.048;11.706;2022-07-12T10:47:19;0.97;;;0.93;;
5209;SDS011;2624;48.048;11.706;2022-07-12T10:52:24;0.90;;;0.90;;
5209;SDS011;2624;48.048;11.706;2022-07-12T10:57:37;3.17;;;1.23;;
5209;SDS011;2624;48.048;11.706;2022-07-12T11:02:41;0.87;;;0.80;;
5209;SDS011;2624;48.048;11.706;2022-07-12T11:07:43;1.10;;;1.10;;
5209;SDS011;2624;48.048;11.706;2022-07-12T11:12:45;3.80;;;1.43;;
5209;SDS011;2624;48.048;11.706;2022-07-12T11:17:48;15.13;;;0.83;;
5209;SDS011;2624;48.048;11.706;2022-07-12T11:22:50;1.00;;;0.57;;
5209;SDS011;2624;48.048;11.706;2022-07-12T11:27:54;1.50;;;1.07;;
5209;SDS011;2624;48.048;11.706;2022-07-12T11:32:57;1.73;;;0.93;;
5209;SDS011;2624;48.048;11.706;2022-07-12T11:37:59;1.03;;;1.03;;
5209;SDS011;2624;48.048;11.706;2022-07-12T11:43:01;0.50;;;0.50;;
5209;SDS011;2624;48.048;11.706;2022-07-12T11:48:06;17.13;;;1.30;;
5209;SDS011;2624;48.048;11.706;2022-07-12T11:53:14;4.73;;;1.20;;
5209;SDS011;2624;48.048;11.706;2022-07-12T11:58:17;2.20;;;1.00;;
5209;SDS011;2624;48.048;11.706;2022-07-12T12:03:21;12.60;;;1.33;;
5209;SDS011;2624;48.048;11.706;2022-07-12T12:08:24;1.70;;;0.87;;
5209;SDS011;2624;48.048;11.706;2022-07-12T12:13:27;4.73;;;0.80;;
5209;SDS011;2624;48.048;11.706;2022-07-12T12:18:32;11.00;;;0.93;;
5209;SDS011;2624;48.048;11.706;2022-07-12T12:23:35;1.70;;;1.67;;
5209;SDS011;2624;48.048;11.706;2022-07-12T12:28:42;0.63;;;0.63;;
5209;SDS011;2624;48.048;11.706;2022-07-12T12:33:47;0.90;;;0.77;;
5209;SDS011;2624;48.048;11.706;2022-07-12T12:38:52;5.77;;;1.17;;
5209;SDS011;2624;48.048;11.706;2022-07-12T12:43:59;1.00;;;1.00;;
5209;SDS011;2624;48.048;11.706;2022-07-12T12:49:03;2.60;;;0.70;;
5209;SDS011;2624;48.048;11.706;2022-07-12T12:54:05;3.50;;;0.70;;
5209;SDS011;2624;48.048;11.706;2022-07-12T12:59:09;14.70;;;0.97;;
5209;SDS011;2624;48.048;11.706;2022-07-12T13:04:13;0.83;;;0.80;;
5209;SDS011;2624;48.048;11.706;2022-07-12T13:09:14;7.83;;;1.17;;
5209;SDS011;2624;48.048;11.706;2022-07-12T13:14:16;2.30;;;0.60;;
5209;SDS011;2624;48.048;11.706;2022-07-12T13:19:19;0.50;;;0.50;;
5209;SDS011;2624;48.048;11.706;2022-07-12T13:24:21;0.50;;;0.50;;
5209;SDS011;2624;48.048;11.706;2022-07-12T13:29:23;1.03;;;0.90;;
5209;SDS011;2624;48.048;11.706;2022-07-12T13:34:26;8.43;;;0.77;;
5209;SDS011;2624;48.048;11.706;2022-07-12T13:39:28;0.57;;;0.57;;
5209;SDS011;2624;48.048;11.706;2022-07-12T13:44:47;1.90;;;0.80;;
5209;SDS011;2624;48.048;11.706;2022-07-12T13:49:50;1.37;;;0.77;;
5209;SDS011;2624;48.048;11.706;2022-07-12T13:54:52;2.20;;;1.00;;
5209;SDS011;2624;48.048;11.706;2022-07-12T13:59:54;1.10;;;0.57;;
5209;SDS011;2624;48.048;11.706;2022-07-12T14:04:59;1.07;;;0.53;;
5209;SDS011;2624;48.048;11.706;2022-07-12T14:10:01;4.67;;;0.67;;
5209;SDS011;2624;48.048;11.706;2022-07-12T14:15:04;4.70;;;0.60;;
5209;SDS011;2624;48.048;11.706;2022-07-12T14:20:20;0.60;;;0.60;;
5209;SDS011;2624;48.048;11.706;2022-07-12T14:25:22;2.53;;;0.60;;
5209;SDS011;2624;48.048;11.706;2022-07-12T14:30:24;4.43;;;0.63;;
5209;SDS011;2624;48.048;11.706;2022-07-12T14:35:27;1.17;;;0.50;;
5209;SDS011;2624;48.048;11.706;2022-07-12T14:40:29;1.90;;;0.60;;
5209;SDS011;2624;48.048;11.706;2022-07-12T14:45:31;1.30;;;0.70;;
5209;SDS011;2624;48.048;11.706;2022-07-12T14:50:34;0.50;;;0.50;;
5209;SDS011;2624;48.048;11.706;2022-07-12T14:55:37;0.60;;;0.60;;
5209;SDS011;2624;48.048;11.706;2022-07-12T15:00:40;0.50;;;0.50;;
5209;SDS011;2624;48.048;11.706;2022-07-12T15:05:43;0.80;;;0.63;;
5209;SDS011;2624;48.048;11.706;2022-07-12T15:10:46;0.50;;;0.50;;
5209;SDS011;2624;48.048;11.706;2022-07-12T15:15:47;2.20;;;0.60;;
5209;SDS011;2624;48.048;11.706;2022-07-12T15:20:51;0.50;;;0.50;;
5209;SDS011;2624;48.048;11.706;2022-07-12T15:25:52;1.27;;;0.60;;
5209;SDS011;2624;48.048;11.706;2022-07-12T15:30:54;0.50;;;0.50;;
5209;SDS011;2624;48.048;11.706;2022-07-12T15:35:58;0.50;;;0.50;;
5209;SDS011;2624;48.048;11.706;2022-07-12T15:40:59;0.60;;;0.60;;
5209;SDS011;2624;48.048;11.706;2022-07-12T15:46:01;0.50;;;0.50;;
5209;SDS011;2624;48.048;11.706;2022-07-12T15:51:05;7.33;;;0.60;;
5209;SDS011;2624;48.048;11.706;2022-07-12T15:56:07;0.50;;;0.50;;
5209;SDS011;2624;48.048;11.706;2022-07-12T16:01:10;2.50;;;0.70;;
5209;SDS011;2624;48.048;11.706;2022-07-12T16:06:13;2.50;;;0.60;;
5209;SDS011;2624;48.048;11.706;2022-07-12T16:11:15;0.50;;;0.50;;
5209;SDS011;2624;48.048;11.706;2022-07-12T16:16:16;0.87;;;0.63;;
5209;SDS011;2624;48.048;11.706;2022-07-12T16:21:20;18.33;;;1.23;;
5209;SDS011;2624;48.048;11.706;2022-07-12T16:26:21;1.07;;;0.87;;
5209;SDS011;2624;48.048;11.706;2022-07-12T16:31:23;0.60;;;0.60;;
5209;SDS011;2624;48.048;11.706;2022-07-12T16:36:26;0.93;;;0.70;;
5209;SDS011;2624;48.048;11.706;2022-07-12T16:41:28;1.27;;;0.70;;
5209;SDS011;2624;48.048;11.706;2022-07-12T16:46:30;3.70;;;0.60;;
5209;SDS011;2624;48.048;11.706;2022-07-12T16:51:33;0.70;;;0.70;;
5209;SDS011;2624;48.048;11.706;2022-07-12T16:56:35;9.63;;;0.80;;
5209;SDS011;2624;48.048;11.706;2022-07-12T17:01:37;4.93;;;0.80;;
5209;SDS011;2624;48.048;11.706;2022-07-12T17:06:40;0.60;;;0.60;;
5209;SDS011;2624;48.048;11.706;2022-07-12T17:11:42;0.87;;;0.60;;
5209;SDS011;2624;48.048;11.706;2022-07-12T17:16:43;0.43;;;0.43;;
5209;SDS011;2624;48.048;11.706;2022-07-12T17:21:46;2.93;;;0.70;;
5209;SDS011;2624;48.048;11.706;2022-07-12T17:26:48;0.50;;;0.50;;
5209;SDS011;2624;48.048;11.706;2022-07-12T17:31:51;0.80;;;0.80;;
5209;SDS011;2624;48.048;11.706;2022-07-12T17:36:54;0.70;;;0.70;;
5209;SDS011;2624;48.048;11.706;2022-07-12T17:41:56;0.50;;;0.50;;
5209;SDS011;2624;48.048;11.706;2022-07-12T17:46:58;3.43;;;0.60;;
5209;SDS011;2624;48.048;11.706;2022-07-12T17:52:01;0.67;;;0.67;;
5209;SDS011;2624;48.048;11.706;2022-07-12T17:57:02;0.70;;;0.70;;
5209;SDS011;2624;48.048;11.706;2022-07-12T18:02:04;0.70;;;0.70;;
5209;SDS011;2624;48.048;11.706;2022-07-12T18:07:08;7.10;;;0.97;;
5209;SDS011;2624;48.048;11.706;2022-07-12T18:12:10;1.10;;;0.73;;
5209;SDS011;2624;48.048;11.706;2022-07-12T18:17:29;1.47;;;0.60;;
5209;SDS011;2624;48.048;11.706;2022-07-12T18:22:50;0.80;;;0.80;;
5209;SDS011;2624;48.048;11.706;2022-07-12T18:27:52;2.20;;;0.90;;
5209;SDS011;2624;48.048;11.706;2022-07-12T18:32:54;0.70;;;0.60;;
5209;SDS011;2624;48.048;11.706;2022-07-12T18:37:57;4.10;;;0.80;;
5209;SDS011;2624;48.048;11.706;2022-07-12T18:42:59;1.73;;;0.70;;
5209;SDS011;2624;48.048;11.706;2022-07-12T18:48:01;0.90;;;0.90;;
5209;SDS011;2624;48.048;11.706;2022-07-12T18:53:04;1.80;;;0.80;;
5209;SDS011;2624;48.048;11.706;2022-07-12T18:58:06;0.67;;;0.67;;
5209;SDS011;2624;48.048;11.706;2022-07-12T19:03:08;0.80;;;0.70;;
5209;SDS011;2624;48.048;11.706;2022-07-12T19:08:11;2.20;;;0.73;;
5209;SDS011;2624;48.048;11.706;2022-07-12T19:13:13;9.83;;;4.80;;
5209;SDS011;2624;48.048;11.706;2022-07-12T19:18:15;2.00;;;1.90;;
5209;SDS011;2624;48.048;11.706;2022-07-12T19:23:18;0.90;;;0.90;;
5209;SDS011;2624;48.048;11.706;2022-07-12T19:28:20;1.90;;;1.80;;
5209;SDS011;2624;48.048;11.706;2022-07-12T19:33:22;2.10;;;2.00;;
5209;SDS011;2624;48.048;11.706;2022-07-12T19:38:25;2.40;;;1.10;;
5209;SDS011;2624;48.048;11.706;2022-07-12T19:43:27;9.30;;;4.60;;
5209;SDS011;2624;48.048;11.706;2022-07-12T19:48:30;3.40;;;1.60;;
5209;SDS011;2624;48.048;11.706;2022-07-12T19:53:33;8.43;;;0.93;;
5209;SDS011;2624;48.048;11.706;2022-07-12T19:58:35;1.67;;;1.57;;
5209;SDS011;2624;48.048;11.706;2022-07-12T20:03:37;2.40;;;1.20;;
5209;SDS011;2624;48.048;11.706;2022-07-12T20:08:40;1.67;;;1.40;;
5209;SDS011;2624;48.048;11.706;2022-07-12T20:13:42;1.97;;;1.77;;
5209;SDS011;2624;48.048;11.706;2022-07-12T20:18:44;4.30;;;3.70;;
5209;SDS011;2624;48.048;11.706;2022-07-12T20:23:48;4.13;;;2.20;;
5209;SDS011;2624;48.048;11.706;2022-07-12T20:28:49;2.53;;;2.00;;
5209;SDS011;2624;48.048;11.706;2022-07-12T20:33:51;1.80;;;1.70;;
5209;SDS011;2624;48.048;11.706;2022-07-12T20:39:12;2.40;;;1.57;;
5209;SDS011;2624;48.048;11.706;2022-07-12T20:44:13;0.97;;;0.97;;
5209;SDS011;2624;48.048;11.706;2022-07-12T20:49:15;7.73;;;0.90;;
5209;SDS011;2624;48.048;11.706;2022-07-12T20:54:19;2.70;;;1.07;;
5209;SDS011;2624;48.048;11.706;2022-07-12T20:59:22;0.77;;;0.77;;
5209;SDS011;2624;48.048;11.706;2022-07-12T21:04:24;0.80;;;0.80;;
5209;SDS011;2624;48.048;11.706;2022-07-12T21:09:27;1.07;;;0.90;;
5209;SDS011;2624;48.048;11.706;2022-07-12T21:14:29;1.93;;;0.70;;
5209;SDS011;2624;48.048;11.706;2022-07-12T21:19:31;2.00;;;1.00;;
5209;SDS011;2624;48.048;11.706;2022-07-12T21:24:34;6.53;;;1.07;;
5209;SDS011;2624;48.048;11.706;2022-07-12T21:29:36;1.90;;;0.90;;
5209;SDS011;2624;48.048;11.706;2022-07-12T21:34:38;3.43;;;0.93;;
5209;SDS011;2624;48.048;11.706;2022-07-12T21:39:41;0.70;;;0.70;;
5209;SDS011;2624;48.048;11.706;2022-07-12T21:44:43;3.03;;;1.00;;
5209;SDS011;2624;48.048;11.706;2022-07-12T21:49:45;0.80;;;0.80;;
5209;SDS011;2624;48.048;11.706;2022-07-12T21:54:48;0.83;;;0.70;;
5209;SDS011;2624;48.048;11.706;2022-07-12T21:59:50;0.70;;;0.70;;
5209;SDS011;2624;48.048;11.706;2022-07-12T22:04:52;1.07;;;0.80;;
5209;SDS011;2624;48.048;11.706;2022-07-12T22:09:55;0.83;;;0.83;;
5209;SDS011;2624;48.048;11.706;2022-07-12T22:14:57;1.40;;;1.30;;
5209;SDS011;2624;48.048;11.706;2022-07-12T22:19:59;1.07;;;1.00;;
5209;SDS011;2624;48.048;11.706;2022-07-12T22:25:02;2.40;;;1.37;;
5209;SDS011;2624;48.048;11.706;2022-07-12T22:30:04;1.40;;;1.03;;
5209;SDS011;2624;48.048;11.706;2022-07-12T22:35:07;0.80;;;0.80;;
5209;SDS011;2624;48.048;11.706;2022-07-12T22:40:10;0.90;;;0.90;;
5209;SDS011;2624;48.048;11.706;2022-07-12T22:45:13;1.10;;;1.10;;
5209;SDS011;2624;48.048;11.706;2022-07-12T22:50:15;0.70;;;0.70;;
5209;SDS011;2624;48.048;11.706;2022-07-12T22:55:38;1.00;;;1.00;;
5209;SDS011;2624;48.048;11.706;2022-07-12T23:00:40;1.53;;;0.90;;
5209;SDS011;2624;48.048;11.706;2022-07-12T23:05:41;4.47;;;1.60;;
5209;SDS011;2624;48.048;11.706;2022-07-12T23:10:44;1.07;;;0.90;;
5209;SDS011;2624;48.048;11.706;2022-07-12T23:15:46;0.90;;;0.90;;
5209;SDS011;2624;48.048;11.706;2022-07-12T23:20:48;1.40;;;1.30;;
5209;SDS011;2624;48.048;11.706;2022-07-12T23:25:52;1.23;;;1.23;;
5209;SDS011;2624;48.048;11.706;2022-07-12T23:30:53;1.00;;;1.00;;
5209;SDS011;2624;48.048;11.706;2022-07-12T23:35:55;1.70;;;1.13;;
5209;SDS011;2624;48.048;11.706;2022-07-12T23:40:59;1.00;;;1.00;;
5209;SDS011;2624;48.048;11.706;2022-07-12T23:46:01;1.03;;;0.97;;
5209;SDS011;2624;48.048;11.706;2022-07-12T23:51:02;3.07;;;1.20;;
5209;SDS011;2624;48.048;11.706;2022-07-12T23:56:06;2.03;;;0.87;;
